sensor_id;sensor_type;location;lat;lon;timestamp;temperature;humidity
24814;DHT22;12904;50.088;11.414;2022-12-07T00:01:39;2.00;99.90
24814;DHT22;12904;50.088;11.414;2022-12-07T00:04:06;2.00;99.90
24814;DHT22;12904;50.088;11.414;2022-12-07T00:06:37;2.00;99.90
24814;DHT22;12904;50.088;11.414;2022-12-07T00:09:04;2.00;99.90
24814;DHT22;12904;50.088;11.414;2022-12-07T00:11:30;2.00;99.90
24814;DHT22;12904;50.088;11.414;2022-12-07T00:13:58;2.00;99.90
24814;DHT22;12904;50.088;11.414;2022-12-07T00:16:28;2.00;99.90
24814;DHT22;12904;50.088;11.414;2022-12-07T00:18:55;2.00;99.90
24814;DHT22;12904;50.088;11.414;2022-12-07T00:21:32;1.90;99.90
24814;DHT22;12904;50.088;11.414;2022-12-07T00:23:58;1.90;99.90
24814;DHT22;12904;50.088;11.414;2022-12-07T00:28:53;1.90;99.90
24814;DHT22;12904;50.088;11.414;2022-12-07T00:31:20;1.90;99.90
24814;DHT22;12904;50.088;11.414;2022-12-07T00:33:46;1.80;99.90
24814;DHT22;12904;50.088;11.414;2022-12-07T00:36:15;1.80;99.90
24814;DHT22;12904;50.088;11.414;2022-12-07T00:38:41;1.80;99.90
24814;DHT22;12904;50.088;11.414;2022-12-07T00:43:35;1.70;99.90
24814;DHT22;12904;50.088;11.414;2022-12-07T00:46:00;1.70;99.90
24814;DHT22;12904;50.088;11.414;2022-12-07T00:48:26;1.70;99.90
24814;DHT22;12904;50.088;11.414;2022-12-07T00:50:52;1.70;99.90
24814;DHT22;12904;50.088;11.414;2022-12-07T00:53:18;1.70;99.90
24814;DHT22;12904;50.088;11.414;2022-12-07T00:55:44;1.70;99.90
24814;DHT22;12904;50.088;11.414;2022-12-07T00:58:09;1.70;99.90
24814;DHT22;12904;50.088;11.414;2022-12-07T01:00:37;1.70;99.90
24814;DHT22;12904;50.088;11.414;2022-12-07T01:03:04;1.70;99.90
24814;DHT22;12904;50.088;11.414;2022-12-07T01:05:30;1.80;99.90
24814;DHT22;12904;50.088;11.414;2022-12-07T01:07:56;1.80;99.90
24814;DHT22;12904;50.088;11.414;2022-12-07T01:10:21;1.80;99.90
24814;DHT22;12904;50.088;11.414;2022-12-07T01:12:47;1.80;99.90
24814;DHT22;12904;50.088;11.414;2022-12-07T01:15:13;1.80;99.90
24814;DHT22;12904;50.088;11.414;2022-12-07T01:17:39;1.80;99.90
24814;DHT22;12904;50.088;11.414;2022-12-07T01:20:05;1.80;99.90
24814;DHT22;12904;50.088;11.414;2022-12-07T01:22:31;1.70;99.90
24814;DHT22;12904;50.088;11.414;2022-12-07T01:24:56;1.60;99.90
24814;DHT22;12904;50.088;11.414;2022-12-07T01:27:22;1.40;99.90
24814;DHT22;12904;50.088;11.414;2022-12-07T01:29:47;1.30;99.90
24814;DHT22;12904;50.088;11.414;2022-12-07T01:32:13;1.30;99.90
24814;DHT22;12904;50.088;11.414;2022-12-07T01:34:39;1.30;99.90
24814;DHT22;12904;50.088;11.414;2022-12-07T01:37:04;1.30;99.90
24814;DHT22;12904;50.088;11.414;2022-12-07T01:39:30;1.40;99.90
24814;DHT22;12904;50.088;11.414;2022-12-07T01:41:56;1.40;99.90
24814;DHT22;12904;50.088;11.414;2022-12-07T01:44:26;1.50;99.90
24814;DHT22;12904;50.088;11.414;2022-12-07T01:47:00;1.50;99.90
24814;DHT22;12904;50.088;11.414;2022-12-07T01:49:47;1.50;99.90
24814;DHT22;12904;50.088;11.414;2022-12-07T01:54:42;1.50;99.90
24814;DHT22;12904;50.088;11.414;2022-12-07T01:57:09;1.60;99.90
24814;DHT22;12904;50.088;11.414;2022-12-07T01:59:36;1.60;99.90
24814;DHT22;12904;50.088;11.414;2022-12-07T02:02:04;1.60;99.90
24814;DHT22;12904;50.088;11.414;2022-12-07T02:04:32;1.60;99.90
24814;DHT22;12904;50.088;11.414;2022-12-07T02:06:57;1.60;99.90
24814;DHT22;12904;50.088;11.414;2022-12-07T02:09:23;1.70;99.90
24814;DHT22;12904;50.088;11.414;2022-12-07T02:11:49;1.70;99.90
24814;DHT22;12904;50.088;11.414;2022-12-07T02:14:15;1.70;99.90
24814;DHT22;12904;50.088;11.414;2022-12-07T02:16:49;1.70;99.90
24814;DHT22;12904;50.088;11.414;2022-12-07T02:30:21;1.60;99.90
24814;DHT22;12904;50.088;11.414;2022-12-07T02:33:24;1.50;99.90
24814;DHT22;12904;50.088;11.414;2022-12-07T02:35:58;1.40;99.90
24814;DHT22;12904;50.088;11.414;2022-12-07T02:41:07;1.20;99.90
24814;DHT22;12904;50.088;11.414;2022-12-07T02:43:43;1.10;99.90
24814;DHT22;12904;50.088;11.414;2022-12-07T02:46:14;1.00;99.90
24814;DHT22;12904;50.088;11.414;2022-12-07T02:48:43;1.00;99.90
24814;DHT22;12904;50.088;11.414;2022-12-07T02:51:09;0.90;99.90
24814;DHT22;12904;50.088;11.414;2022-12-07T02:53:42;0.90;99.90
24814;DHT22;12904;50.088;11.414;2022-12-07T02:58:57;0.90;99.90
24814;DHT22;12904;50.088;11.414;2022-12-07T03:07:38;0.90;99.90
24814;DHT22;12904;50.088;11.414;2022-12-07T03:10:42;0.90;99.90
24814;DHT22;12904;50.088;11.414;2022-12-07T03:21:39;1.10;99.90
24814;DHT22;12904;50.088;11.414;2022-12-07T03:24:10;1.10;99.90
24814;DHT22;12904;50.088;11.414;2022-12-07T03:26:45;1.20;99.90
24814;DHT22;12904;50.088;11.414;2022-12-07T03:29:39;1.20;99.90
24814;DHT22;12904;50.088;11.414;2022-12-07T03:32:29;1.20;99.90
24814;DHT22;12904;50.088;11.414;2022-12-07T03:35:10;1.30;99.90
24814;DHT22;12904;50.088;11.414;2022-12-07T03:37:48;1.30;99.90
24814;DHT22;12904;50.088;11.414;2022-12-07T03:41:14;1.30;99.90
24814;DHT22;12904;50.088;11.414;2022-12-07T03:43:16;1.30;99.90
24814;DHT22;12904;50.088;11.414;2022-12-07T03:45:50;1.40;99.90
24814;DHT22;12904;50.088;11.414;2022-12-07T03:51:26;1.40;99.90
24814;DHT22;12904;50.088;11.414;2022-12-07T03:56:33;1.50;99.90
24814;DHT22;12904;50.088;11.414;2022-12-07T03:59:00;1.50;99.90
24814;DHT22;12904;50.088;11.414;2022-12-07T04:01:25;1.60;99.90
24814;DHT22;12904;50.088;11.414;2022-12-07T04:03:51;1.60;99.90
24814;DHT22;12904;50.088;11.414;2022-12-07T04:06:17;1.60;99.90
24814;DHT22;12904;50.088;11.414;2022-12-07T04:08:42;1.60;99.90
24814;DHT22;12904;50.088;11.414;2022-12-07T04:11:08;1.60;99.90
24814;DHT22;12904;50.088;11.414;2022-12-07T04:13:34;1.60;99.90
24814;DHT22;12904;50.088;11.414;2022-12-07T04:16:19;1.60;99.90
24814;DHT22;12904;50.088;11.414;2022-12-07T04:18:45;1.60;99.90
24814;DHT22;12904;50.088;11.414;2022-12-07T04:21:11;1.70;99.90
24814;DHT22;12904;50.088;11.414;2022-12-07T04:23:37;1.70;99.90
24814;DHT22;12904;50.088;11.414;2022-12-07T04:26:02;1.70;99.90
24814;DHT22;12904;50.088;11.414;2022-12-07T04:28:28;1.70;99.90
24814;DHT22;12904;50.088;11.414;2022-12-07T04:30:53;1.70;99.90
24814;DHT22;12904;50.088;11.414;2022-12-07T04:33:19;1.70;99.90
24814;DHT22;12904;50.088;11.414;2022-12-07T04:35:44;1.70;99.90
24814;DHT22;12904;50.088;11.414;2022-12-07T04:38:10;1.70;99.90
24814;DHT22;12904;50.088;11.414;2022-12-07T04:40:36;1.70;99.90
24814;DHT22;12904;50.088;11.414;2022-12-07T04:43:01;1.70;99.90
24814;DHT22;12904;50.088;11.414;2022-12-07T04:45:27;1.60;99.90
24814;DHT22;12904;50.088;11.414;2022-12-07T04:47:53;1.60;99.90
24814;DHT22;12904;50.088;11.414;2022-12-07T04:50:18;1.60;99.90
24814;DHT22;12904;50.088;11.414;2022-12-07T04:52:44;1.60;99.90
24814;DHT22;12904;50.088;11.414;2022-12-07T04:55:10;1.60;99.90
24814;DHT22;12904;50.088;11.414;2022-12-07T04:57:35;1.60;99.90
24814;DHT22;12904;50.088;11.414;2022-12-07T05:00:01;1.60;99.90
24814;DHT22;12904;50.088;11.414;2022-12-07T05:02:26;1.60;99.90
24814;DHT22;12904;50.088;11.414;2022-12-07T05:04:52;1.60;99.90
24814;DHT22;12904;50.088;11.414;2022-12-07T05:07:18;1.60;99.90
24814;DHT22;12904;50.088;11.414;2022-12-07T05:09:43;1.60;99.90
24814;DHT22;12904;50.088;11.414;2022-12-07T05:12:09;1.60;99.90
24814;DHT22;12904;50.088;11.414;2022-12-07T05:14:35;1.60;99.90
24814;DHT22;12904;50.088;11.414;2022-12-07T05:17:00;1.60;99.90
24814;DHT22;12904;50.088;11.414;2022-12-07T05:19:26;1.60;99.90
24814;DHT22;12904;50.088;11.414;2022-12-07T05:21:52;1.60;99.90
24814;DHT22;12904;50.088;11.414;2022-12-07T05:24:17;1.60;99.90
24814;DHT22;12904;50.088;11.414;2022-12-07T05:26:44;1.60;99.90
24814;DHT22;12904;50.088;11.414;2022-12-07T05:29:12;1.60;99.90
24814;DHT22;12904;50.088;11.414;2022-12-07T05:31:38;1.50;99.90
24814;DHT22;12904;50.088;11.414;2022-12-07T05:34:03;1.50;99.90
24814;DHT22;12904;50.088;11.414;2022-12-07T05:36:29;1.50;99.90
24814;DHT22;12904;50.088;11.414;2022-12-07T05:38:57;1.50;99.90
24814;DHT22;12904;50.088;11.414;2022-12-07T05:41:22;1.60;99.90
24814;DHT22;12904;50.088;11.414;2022-12-07T05:44:07;1.60;99.90
24814;DHT22;12904;50.088;11.414;2022-12-07T05:46:32;1.60;99.90
24814;DHT22;12904;50.088;11.414;2022-12-07T05:48:58;1.70;99.90
24814;DHT22;12904;50.088;11.414;2022-12-07T05:51:24;1.70;99.90
24814;DHT22;12904;50.088;11.414;2022-12-07T05:53:49;1.60;99.90
24814;DHT22;12904;50.088;11.414;2022-12-07T05:56:15;1.60;99.90
24814;DHT22;12904;50.088;11.414;2022-12-07T05:58:41;1.70;99.90
24814;DHT22;12904;50.088;11.414;2022-12-07T06:01:25;1.60;99.90
24814;DHT22;12904;50.088;11.414;2022-12-07T06:03:51;1.60;99.90
24814;DHT22;12904;50.088;11.414;2022-12-07T06:06:16;1.60;99.90
24814;DHT22;12904;50.088;11.414;2022-12-07T06:08:42;1.60;99.90
24814;DHT22;12904;50.088;11.414;2022-12-07T06:11:07;1.60;99.90
24814;DHT22;12904;50.088;11.414;2022-12-07T06:13:52;1.70;99.90
24814;DHT22;12904;50.088;11.414;2022-12-07T06:16:18;1.70;99.90
24814;DHT22;12904;50.088;11.414;2022-12-07T06:18:44;1.70;99.90
24814;DHT22;12904;50.088;11.414;2022-12-07T06:21:09;1.70;99.90
24814;DHT22;12904;50.088;11.414;2022-12-07T06:23:35;1.70;99.90
24814;DHT22;12904;50.088;11.414;2022-12-07T06:26:01;1.70;99.90
24814;DHT22;12904;50.088;11.414;2022-12-07T06:28:26;1.70;99.90
24814;DHT22;12904;50.088;11.414;2022-12-07T06:30:59;1.70;99.90
24814;DHT22;12904;50.088;11.414;2022-12-07T06:33:26;1.70;99.90
24814;DHT22;12904;50.088;11.414;2022-12-07T06:35:52;1.70;99.90
24814;DHT22;12904;50.088;11.414;2022-12-07T06:38:18;1.80;99.90
24814;DHT22;12904;50.088;11.414;2022-12-07T06:40:43;1.80;99.90
24814;DHT22;12904;50.088;11.414;2022-12-07T06:43:09;1.70;99.90
24814;DHT22;12904;50.088;11.414;2022-12-07T06:45:35;1.80;99.90
24814;DHT22;12904;50.088;11.414;2022-12-07T06:48:00;1.90;99.90
24814;DHT22;12904;50.088;11.414;2022-12-07T06:50:26;1.80;99.90
24814;DHT22;12904;50.088;11.414;2022-12-07T06:52:52;1.90;99.90
24814;DHT22;12904;50.088;11.414;2022-12-07T06:55:17;1.90;99.90
24814;DHT22;12904;50.088;11.414;2022-12-07T06:57:43;1.90;99.90
24814;DHT22;12904;50.088;11.414;2022-12-07T07:00:09;1.90;99.90
24814;DHT22;12904;50.088;11.414;2022-12-07T07:02:35;2.00;99.90
24814;DHT22;12904;50.088;11.414;2022-12-07T07:05:01;2.00;99.90
24814;DHT22;12904;50.088;11.414;2022-12-07T07:07:26;2.00;99.90
24814;DHT22;12904;50.088;11.414;2022-12-07T07:09:52;2.00;99.90
24814;DHT22;12904;50.088;11.414;2022-12-07T07:12:18;2.00;99.90
24814;DHT22;12904;50.088;11.414;2022-12-07T07:14:43;2.10;99.90
24814;DHT22;12904;50.088;11.414;2022-12-07T07:17:09;2.10;99.90
24814;DHT22;12904;50.088;11.414;2022-12-07T07:19:34;2.10;99.90
24814;DHT22;12904;50.088;11.414;2022-12-07T07:22:00;2.10;99.90
24814;DHT22;12904;50.088;11.414;2022-12-07T07:24:26;2.10;99.90
24814;DHT22;12904;50.088;11.414;2022-12-07T07:26:51;2.10;99.90
24814;DHT22;12904;50.088;11.414;2022-12-07T07:29:17;2.10;99.90
24814;DHT22;12904;50.088;11.414;2022-12-07T07:31:43;2.10;99.90
24814;DHT22;12904;50.088;11.414;2022-12-07T07:34:08;2.10;99.90
24814;DHT22;12904;50.088;11.414;2022-12-07T07:36:34;2.10;99.90
24814;DHT22;12904;50.088;11.414;2022-12-07T07:39:00;2.10;99.90
24814;DHT22;12904;50.088;11.414;2022-12-07T07:41:25;2.10;99.90
24814;DHT22;12904;50.088;11.414;2022-12-07T07:43:51;2.10;99.90
24814;DHT22;12904;50.088;11.414;2022-12-07T07:46:16;2.20;99.90
24814;DHT22;12904;50.088;11.414;2022-12-07T07:48:42;2.20;99.90
24814;DHT22;12904;50.088;11.414;2022-12-07T07:51:08;2.20;99.90
24814;DHT22;12904;50.088;11.414;2022-12-07T07:53:34;2.20;99.90
24814;DHT22;12904;50.088;11.414;2022-12-07T07:56:00;2.20;99.90
24814;DHT22;12904;50.088;11.414;2022-12-07T07:58:25;2.30;99.90
24814;DHT22;12904;50.088;11.414;2022-12-07T08:00:51;2.30;99.90
24814;DHT22;12904;50.088;11.414;2022-12-07T08:03:17;2.30;99.90
24814;DHT22;12904;50.088;11.414;2022-12-07T08:05:43;2.30;99.90
24814;DHT22;12904;50.088;11.414;2022-12-07T08:08:08;2.30;99.90
24814;DHT22;12904;50.088;11.414;2022-12-07T08:10:34;2.30;99.90
24814;DHT22;12904;50.088;11.414;2022-12-07T08:13:01;2.30;99.90
24814;DHT22;12904;50.088;11.414;2022-12-07T08:15:44;2.40;99.90
24814;DHT22;12904;50.088;11.414;2022-12-07T08:18:10;2.40;99.90
24814;DHT22;12904;50.088;11.414;2022-12-07T08:20:37;2.30;99.90
24814;DHT22;12904;50.088;11.414;2022-12-07T08:23:03;2.40;99.90
24814;DHT22;12904;50.088;11.414;2022-12-07T08:25:29;2.40;99.90
24814;DHT22;12904;50.088;11.414;2022-12-07T08:27:55;2.40;99.90
24814;DHT22;12904;50.088;11.414;2022-12-07T08:30:21;2.40;99.90
24814;DHT22;12904;50.088;11.414;2022-12-07T08:32:48;2.40;99.90
24814;DHT22;12904;50.088;11.414;2022-12-07T08:35:14;2.40;99.90
24814;DHT22;12904;50.088;11.414;2022-12-07T08:37:40;2.40;99.90
24814;DHT22;12904;50.088;11.414;2022-12-07T08:40:08;2.40;99.90
24814;DHT22;12904;50.088;11.414;2022-12-07T08:42:34;2.50;99.90
24814;DHT22;12904;50.088;11.414;2022-12-07T08:45:07;2.50;99.90
24814;DHT22;12904;50.088;11.414;2022-12-07T08:47:39;2.50;99.90
24814;DHT22;12904;50.088;11.414;2022-12-07T08:50:07;2.50;99.90
24814;DHT22;12904;50.088;11.414;2022-12-07T08:52:35;2.50;99.90
24814;DHT22;12904;50.088;11.414;2022-12-07T08:55:01;2.60;99.90
24814;DHT22;12904;50.088;11.414;2022-12-07T08:57:29;2.50;99.90
24814;DHT22;12904;50.088;11.414;2022-12-07T08:59:55;2.60;99.90
24814;DHT22;12904;50.088;11.414;2022-12-07T09:02:21;2.60;99.90
24814;DHT22;12904;50.088;11.414;2022-12-07T09:04:47;2.60;99.90
24814;DHT22;12904;50.088;11.414;2022-12-07T09:07:12;2.70;99.90
24814;DHT22;12904;50.088;11.414;2022-12-07T09:09:38;2.70;99.90
24814;DHT22;12904;50.088;11.414;2022-12-07T09:12:04;2.70;99.90
24814;DHT22;12904;50.088;11.414;2022-12-07T09:14:29;2.70;99.90
24814;DHT22;12904;50.088;11.414;2022-12-07T09:16:56;2.70;99.90
24814;DHT22;12904;50.088;11.414;2022-12-07T09:19:29;2.70;99.90
24814;DHT22;12904;50.088;11.414;2022-12-07T09:21:55;2.70;99.90
24814;DHT22;12904;50.088;11.414;2022-12-07T09:24:20;2.70;99.90
24814;DHT22;12904;50.088;11.414;2022-12-07T09:26:47;2.70;99.90
24814;DHT22;12904;50.088;11.414;2022-12-07T09:29:13;2.70;99.90
24814;DHT22;12904;50.088;11.414;2022-12-07T09:31:39;2.80;99.90
24814;DHT22;12904;50.088;11.414;2022-12-07T09:34:04;2.90;99.90
24814;DHT22;12904;50.088;11.414;2022-12-07T09:36:31;2.90;99.90
24814;DHT22;12904;50.088;11.414;2022-12-07T09:38:57;3.00;99.90
24814;DHT22;12904;50.088;11.414;2022-12-07T09:41:24;3.00;99.90
24814;DHT22;12904;50.088;11.414;2022-12-07T09:43:51;3.00;99.90
24814;DHT22;12904;50.088;11.414;2022-12-07T09:46:19;3.10;99.90
24814;DHT22;12904;50.088;11.414;2022-12-07T09:48:46;3.10;99.90
24814;DHT22;12904;50.088;11.414;2022-12-07T09:51:23;3.20;99.90
24814;DHT22;12904;50.088;11.414;2022-12-07T09:53:51;3.20;99.90
24814;DHT22;12904;50.088;11.414;2022-12-07T09:56:18;3.20;99.90
24814;DHT22;12904;50.088;11.414;2022-12-07T09:58:46;3.30;99.90
24814;DHT22;12904;50.088;11.414;2022-12-07T10:01:18;3.20;99.90
24814;DHT22;12904;50.088;11.414;2022-12-07T10:06:42;3.10;99.90
24814;DHT22;12904;50.088;11.414;2022-12-07T10:09:16;3.10;99.90
24814;DHT22;12904;50.088;11.414;2022-12-07T10:12:11;3.10;99.90
24814;DHT22;12904;50.088;11.414;2022-12-07T10:14:39;3.10;99.90
24814;DHT22;12904;50.088;11.414;2022-12-07T10:23:04;3.30;99.90
24814;DHT22;12904;50.088;11.414;2022-12-07T10:25:37;3.30;99.90
24814;DHT22;12904;50.088;11.414;2022-12-07T10:30:33;3.30;99.90
24814;DHT22;12904;50.088;11.414;2022-12-07T10:32:59;3.40;99.90
24814;DHT22;12904;50.088;11.414;2022-12-07T10:35:26;3.40;99.90
24814;DHT22;12904;50.088;11.414;2022-12-07T10:37:53;3.40;99.90
24814;DHT22;12904;50.088;11.414;2022-12-07T10:40:34;3.50;99.90
24814;DHT22;12904;50.088;11.414;2022-12-07T10:43:26;3.60;99.90
24814;DHT22;12904;50.088;11.414;2022-12-07T10:54:03;3.70;99.90
24814;DHT22;12904;50.088;11.414;2022-12-07T10:56:57;3.90;99.90
24814;DHT22;12904;50.088;11.414;2022-12-07T11:02:25;4.10;99.90
24814;DHT22;12904;50.088;11.414;2022-12-07T11:07:59;4.10;99.90
24814;DHT22;12904;50.088;11.414;2022-12-07T11:10:48;4.10;99.90
24814;DHT22;12904;50.088;11.414;2022-12-07T11:13:53;4.20;99.90
24814;DHT22;12904;50.088;11.414;2022-12-07T11:19:32;4.30;99.90
24814;DHT22;12904;50.088;11.414;2022-12-07T11:30:16;4.30;99.90
24814;DHT22;12904;50.088;11.414;2022-12-07T11:38:01;4.30;99.90
24814;DHT22;12904;50.088;11.414;2022-12-07T11:40:36;4.30;99.90
24814;DHT22;12904;50.088;11.414;2022-12-07T11:43:28;4.30;99.90
24814;DHT22;12904;50.088;11.414;2022-12-07T11:46:08;4.20;99.90
24814;DHT22;12904;50.088;11.414;2022-12-07T11:48:51;4.10;99.90
24814;DHT22;12904;50.088;11.414;2022-12-07T11:51:21;4.10;99.90
24814;DHT22;12904;50.088;11.414;2022-12-07T11:53:52;4.10;99.90
24814;DHT22;12904;50.088;11.414;2022-12-07T11:56:21;4.10;99.90
24814;DHT22;12904;50.088;11.414;2022-12-07T12:06:37;4.30;99.90
24814;DHT22;12904;50.088;11.414;2022-12-07T12:09:17;4.30;99.90
24814;DHT22;12904;50.088;11.414;2022-12-07T12:19:37;4.50;99.90
24814;DHT22;12904;50.088;11.414;2022-12-07T12:22:20;4.50;99.90
24814;DHT22;12904;50.088;11.414;2022-12-07T12:24:48;4.60;99.90
24814;DHT22;12904;50.088;11.414;2022-12-07T12:27:29;4.60;99.90
24814;DHT22;12904;50.088;11.414;2022-12-07T12:30:02;4.60;99.90
24814;DHT22;12904;50.088;11.414;2022-12-07T12:37:47;4.60;99.90
24814;DHT22;12904;50.088;11.414;2022-12-07T12:45:22;4.60;99.90
24814;DHT22;12904;50.088;11.414;2022-12-07T12:47:55;4.50;99.90
24814;DHT22;12904;50.088;11.414;2022-12-07T12:52:57;4.70;99.90
24814;DHT22;12904;50.088;11.414;2022-12-07T12:55:49;4.90;99.90
24814;DHT22;12904;50.088;11.414;2022-12-07T13:00:48;5.60;99.90
24814;DHT22;12904;50.088;11.414;2022-12-07T13:03:33;5.60;99.90
24814;DHT22;12904;50.088;11.414;2022-12-07T13:08:56;5.80;99.90
24814;DHT22;12904;50.088;11.414;2022-12-07T13:11:33;5.80;99.90
24814;DHT22;12904;50.088;11.414;2022-12-07T13:27:37;4.80;99.90
24814;DHT22;12904;50.088;11.414;2022-12-07T13:30:17;4.70;99.90
24814;DHT22;12904;50.088;11.414;2022-12-07T13:32:43;4.60;99.90
24814;DHT22;12904;50.088;11.414;2022-12-07T13:35:34;4.50;99.90
24814;DHT22;12904;50.088;11.414;2022-12-07T13:38:28;4.40;99.90
24814;DHT22;12904;50.088;11.414;2022-12-07T13:41:14;4.40;99.90
24814;DHT22;12904;50.088;11.414;2022-12-07T13:43:59;4.40;99.90
24814;DHT22;12904;50.088;11.414;2022-12-07T13:46:52;4.40;99.90
24814;DHT22;12904;50.088;11.414;2022-12-07T13:49:28;4.40;99.90
24814;DHT22;12904;50.088;11.414;2022-12-07T13:52:06;4.30;99.90
24814;DHT22;12904;50.088;11.414;2022-12-07T13:54:32;4.30;99.90
24814;DHT22;12904;50.088;11.414;2022-12-07T13:56:58;4.20;99.90
24814;DHT22;12904;50.088;11.414;2022-12-07T13:59:25;4.30;99.90
24814;DHT22;12904;50.088;11.414;2022-12-07T14:01:52;4.20;99.90
24814;DHT22;12904;50.088;11.414;2022-12-07T14:04:32;4.20;99.90
24814;DHT22;12904;50.088;11.414;2022-12-07T14:06:58;4.20;99.90
24814;DHT22;12904;50.088;11.414;2022-12-07T14:09:25;4.20;99.90
24814;DHT22;12904;50.088;11.414;2022-12-07T14:11:53;4.30;99.90
24814;DHT22;12904;50.088;11.414;2022-12-07T14:14:26;4.40;99.90
24814;DHT22;12904;50.088;11.414;2022-12-07T14:17:24;4.40;99.90
24814;DHT22;12904;50.088;11.414;2022-12-07T14:19:57;4.40;99.90
24814;DHT22;12904;50.088;11.414;2022-12-07T14:25:18;3.90;99.90
24814;DHT22;12904;50.088;11.414;2022-12-07T14:27:59;3.70;99.90
24814;DHT22;12904;50.088;11.414;2022-12-07T14:30:28;3.50;99.90
24814;DHT22;12904;50.088;11.414;2022-12-07T14:33:00;3.40;99.90
24814;DHT22;12904;50.088;11.414;2022-12-07T14:35:27;3.30;99.90
24814;DHT22;12904;50.088;11.414;2022-12-07T14:37:53;3.20;99.90
24814;DHT22;12904;50.088;11.414;2022-12-07T14:40:23;3.10;99.90
24814;DHT22;12904;50.088;11.414;2022-12-07T14:43:01;2.90;99.90
24814;DHT22;12904;50.088;11.414;2022-12-07T14:45:27;2.70;99.90
24814;DHT22;12904;50.088;11.414;2022-12-07T14:47:52;2.60;99.90
24814;DHT22;12904;50.088;11.414;2022-12-07T14:50:20;2.50;99.90
24814;DHT22;12904;50.088;11.414;2022-12-07T14:52:51;2.40;99.90
24814;DHT22;12904;50.088;11.414;2022-12-07T14:55:38;2.40;99.90
24814;DHT22;12904;50.088;11.414;2022-12-07T14:58:04;2.30;99.90
24814;DHT22;12904;50.088;11.414;2022-12-07T15:00:30;2.30;99.90
24814;DHT22;12904;50.088;11.414;2022-12-07T15:02:56;2.20;99.90
24814;DHT22;12904;50.088;11.414;2022-12-07T15:05:22;2.20;99.90
24814;DHT22;12904;50.088;11.414;2022-12-07T15:07:48;2.10;99.90
24814;DHT22;12904;50.088;11.414;2022-12-07T15:10:20;2.10;99.90
24814;DHT22;12904;50.088;11.414;2022-12-07T15:12:46;2.10;99.90
24814;DHT22;12904;50.088;11.414;2022-12-07T15:15:12;2.10;99.90
24814;DHT22;12904;50.088;11.414;2022-12-07T15:17:38;2.20;99.90
24814;DHT22;12904;50.088;11.414;2022-12-07T15:20:05;2.30;99.90
24814;DHT22;12904;50.088;11.414;2022-12-07T15:22:30;2.20;99.90
24814;DHT22;12904;50.088;11.414;2022-12-07T15:24:57;2.30;99.90
24814;DHT22;12904;50.088;11.414;2022-12-07T15:27:22;2.30;99.90
24814;DHT22;12904;50.088;11.414;2022-12-07T15:29:48;2.30;99.90
24814;DHT22;12904;50.088;11.414;2022-12-07T15:32:14;2.30;99.90
24814;DHT22;12904;50.088;11.414;2022-12-07T15:34:39;2.20;99.90
24814;DHT22;12904;50.088;11.414;2022-12-07T15:37:05;2.20;99.90
24814;DHT22;12904;50.088;11.414;2022-12-07T15:39:31;2.20;99.90
24814;DHT22;12904;50.088;11.414;2022-12-07T15:41:57;2.10;99.90
24814;DHT22;12904;50.088;11.414;2022-12-07T15:44:23;2.10;99.90
24814;DHT22;12904;50.088;11.414;2022-12-07T15:47:07;2.00;99.90
24814;DHT22;12904;50.088;11.414;2022-12-07T15:49:32;2.00;99.90
24814;DHT22;12904;50.088;11.414;2022-12-07T15:51:58;2.00;99.90
24814;DHT22;12904;50.088;11.414;2022-12-07T15:54:26;1.90;99.90
24814;DHT22;12904;50.088;11.414;2022-12-07T15:56:53;1.90;99.90
24814;DHT22;12904;50.088;11.414;2022-12-07T15:59:19;2.00;99.90
24814;DHT22;12904;50.088;11.414;2022-12-07T16:01:44;2.00;99.90
24814;DHT22;12904;50.088;11.414;2022-12-07T16:04:10;2.10;99.90
24814;DHT22;12904;50.088;11.414;2022-12-07T16:06:36;2.10;99.90
24814;DHT22;12904;50.088;11.414;2022-12-07T16:09:02;2.10;99.90
24814;DHT22;12904;50.088;11.414;2022-12-07T16:11:28;2.10;99.90
24814;DHT22;12904;50.088;11.414;2022-12-07T16:13:54;2.10;99.90
24814;DHT22;12904;50.088;11.414;2022-12-07T16:16:20;2.10;99.90
24814;DHT22;12904;50.088;11.414;2022-12-07T16:18:48;2.10;99.90
24814;DHT22;12904;50.088;11.414;2022-12-07T16:21:15;2.20;99.90
24814;DHT22;12904;50.088;11.414;2022-12-07T16:23:41;2.20;99.90
24814;DHT22;12904;50.088;11.414;2022-12-07T16:26:11;2.20;99.90
24814;DHT22;12904;50.088;11.414;2022-12-07T16:28:37;2.20;99.90
24814;DHT22;12904;50.088;11.414;2022-12-07T16:31:08;2.20;99.90
24814;DHT22;12904;50.088;11.414;2022-12-07T16:33:35;2.20;99.90
24814;DHT22;12904;50.088;11.414;2022-12-07T16:36:04;2.20;99.90
24814;DHT22;12904;50.088;11.414;2022-12-07T16:38:30;2.20;99.90
24814;DHT22;12904;50.088;11.414;2022-12-07T16:40:56;2.20;99.90
24814;DHT22;12904;50.088;11.414;2022-12-07T16:43:22;2.30;99.90
24814;DHT22;12904;50.088;11.414;2022-12-07T16:45:48;2.30;99.90
24814;DHT22;12904;50.088;11.414;2022-12-07T16:48:15;2.20;99.90
24814;DHT22;12904;50.088;11.414;2022-12-07T16:50:42;2.30;99.90
24814;DHT22;12904;50.088;11.414;2022-12-07T16:53:09;2.30;99.90
24814;DHT22;12904;50.088;11.414;2022-12-07T16:55:39;2.40;99.90
24814;DHT22;12904;50.088;11.414;2022-12-07T16:58:05;2.40;99.90
24814;DHT22;12904;50.088;11.414;2022-12-07T17:00:31;2.40;99.90
24814;DHT22;12904;50.088;11.414;2022-12-07T17:02:57;2.40;99.90
24814;DHT22;12904;50.088;11.414;2022-12-07T17:05:22;2.40;99.90
24814;DHT22;12904;50.088;11.414;2022-12-07T17:07:50;2.50;99.90
24814;DHT22;12904;50.088;11.414;2022-12-07T17:10:15;2.50;99.90
24814;DHT22;12904;50.088;11.414;2022-12-07T17:12:41;2.50;99.90
24814;DHT22;12904;50.088;11.414;2022-12-07T17:15:08;2.50;99.90
24814;DHT22;12904;50.088;11.414;2022-12-07T17:17:47;2.40;99.90
24814;DHT22;12904;50.088;11.414;2022-12-07T17:20:16;2.50;99.90
24814;DHT22;12904;50.088;11.414;2022-12-07T17:22:43;2.50;99.90
24814;DHT22;12904;50.088;11.414;2022-12-07T17:25:09;2.50;99.90
24814;DHT22;12904;50.088;11.414;2022-12-07T17:27:35;2.50;99.90
24814;DHT22;12904;50.088;11.414;2022-12-07T17:30:03;2.50;99.90
24814;DHT22;12904;50.088;11.414;2022-12-07T17:32:28;2.50;99.90
24814;DHT22;12904;50.088;11.414;2022-12-07T17:34:54;2.50;99.90
24814;DHT22;12904;50.088;11.414;2022-12-07T17:37:20;2.50;99.90
24814;DHT22;12904;50.088;11.414;2022-12-07T17:39:45;2.60;99.90
24814;DHT22;12904;50.088;11.414;2022-12-07T17:42:11;2.60;99.90
24814;DHT22;12904;50.088;11.414;2022-12-07T17:44:55;2.60;99.90
24814;DHT22;12904;50.088;11.414;2022-12-07T17:47:21;2.60;99.90
24814;DHT22;12904;50.088;11.414;2022-12-07T17:49:46;2.60;99.90
24814;DHT22;12904;50.088;11.414;2022-12-07T17:52:13;2.60;99.90
24814;DHT22;12904;50.088;11.414;2022-12-07T17:54:58;2.60;99.90
24814;DHT22;12904;50.088;11.414;2022-12-07T17:57:23;2.60;99.90
24814;DHT22;12904;50.088;11.414;2022-12-07T17:59:49;2.60;99.90